Terminal Aerodrome Forecast
Issued by NWS

Home | Current Version | Previous Version | Text Only | Print | Product List | Glossary On
Versions: 1 2 3 4 5 6 7 8 9 10 11 12 13 14
900
FTUS46 KSEW 202320
TAFBFI
TAF
KBFI 202320Z 2100/2124 18010KT P6SM SCT040 SCT070
     FM210300 28004KT P6SM SCT040 BKN070
     FM211200 VRB03KT P6SM BKN025 BKN150
     FM211800 21005KT P6SM SCT030 BKN100
     FM212200 27006KT P6SM BKN100=

USA.gov is the U.S. government's official web portal to all federal, state and local government web resources and services.